sensor_id;sensor_type;location;lat;lon;timestamp;pressure;altitude;pressure_sealevel;temperature;humidity
48027;BME280;50714;49.208;5.364;2023-04-25T00:08:14;98939.91;;;8.46;93.63
48027;BME280;50714;49.208;5.364;2023-04-25T00:18:14;98944.25;;;8.54;94.25
48027;BME280;50714;49.208;5.364;2023-04-25T00:28:15;98949.19;;;8.50;93.68
48027;BME280;50714;49.208;5.364;2023-04-25T00:38:16;98917.75;;;8.44;93.58
48027;BME280;50714;49.208;5.364;2023-04-25T00:48:17;98880.84;;;8.18;95.78
48027;BME280;50714;49.208;5.364;2023-04-25T00:58:18;98867.38;;;8.05;96.32
48027;BME280;50714;49.208;5.364;2023-04-25T01:08:21;98874.00;;;8.03;96.95
48027;BME280;50714;49.208;5.364;2023-04-25T01:18:23;98864.69;;;7.99;97.49
48027;BME280;50714;49.208;5.364;2023-04-25T01:28:24;98869.66;;;8.02;98.04
48027;BME280;50714;49.208;5.364;2023-04-25T01:38:24;98880.63;;;8.13;97.61
48027;BME280;50714;49.208;5.364;2023-04-25T01:48:25;98888.50;;;8.15;96.60
48027;BME280;50714;49.208;5.364;2023-04-25T01:58:25;98877.09;;;8.06;96.88
48027;BME280;50714;49.208;5.364;2023-04-25T02:08:26;98878.13;;;8.05;97.62
48027;BME280;50714;49.208;5.364;2023-04-25T02:18:26;98865.31;;;8.01;97.34
48027;BME280;50714;49.208;5.364;2023-04-25T02:28:27;98870.44;;;7.89;97.00
48027;BME280;50714;49.208;5.364;2023-04-25T02:38:27;98874.59;;;8.05;97.28
48027;BME280;50714;49.208;5.364;2023-04-25T02:48:28;98860.56;;;8.03;96.70
48027;BME280;50714;49.208;5.364;2023-04-25T02:58:30;98871.53;;;8.01;97.23
48027;BME280;50714;49.208;5.364;2023-04-25T03:08:30;98877.72;;;8.02;97.73
48027;BME280;50714;49.208;5.364;2023-04-25T03:18:32;98877.50;;;8.10;97.74
48027;BME280;50714;49.208;5.364;2023-04-25T03:28:32;98878.16;;;8.12;96.97
48027;BME280;50714;49.208;5.364;2023-04-25T03:38:33;98874.66;;;8.18;97.66
48027;BME280;50714;49.208;5.364;2023-04-25T03:48:33;98868.88;;;8.21;97.43
48027;BME280;50714;49.208;5.364;2023-04-25T03:58:33;98876.13;;;8.20;97.08
48027;BME280;50714;49.208;5.364;2023-04-25T04:08:34;98877.13;;;8.19;97.24
48027;BME280;50714;49.208;5.364;2023-04-25T04:18:34;98881.88;;;8.11;96.46
48027;BME280;50714;49.208;5.364;2023-04-25T04:28:35;98883.94;;;8.15;97.22
48027;BME280;50714;49.208;5.364;2023-04-25T04:38:36;98889.94;;;8.17;97.42
48027;BME280;50714;49.208;5.364;2023-04-25T04:48:36;98899.88;;;8.17;97.22
48027;BME280;50714;49.208;5.364;2023-04-25T04:58:37;98906.72;;;8.19;97.83
48027;BME280;50714;49.208;5.364;2023-04-25T05:08:37;98917.06;;;8.23;97.98
48027;BME280;50714;49.208;5.364;2023-04-25T05:18:39;98927.44;;;8.32;98.25
48027;BME280;50714;49.208;5.364;2023-04-25T05:28:40;98933.00;;;8.31;98.10
48027;BME280;50714;49.208;5.364;2023-04-25T05:38:41;98948.97;;;8.39;98.43
48027;BME280;50714;49.208;5.364;2023-04-25T05:48:42;98957.06;;;8.45;97.66
48027;BME280;50714;49.208;5.364;2023-04-25T05:58:42;98966.59;;;8.48;97.75
48027;BME280;50714;49.208;5.364;2023-04-25T06:08:43;98975.28;;;8.57;98.52
48027;BME280;50714;49.208;5.364;2023-04-25T06:18:43;98986.09;;;8.70;98.34
48027;BME280;50714;49.208;5.364;2023-04-25T06:28:43;98995.81;;;8.77;97.79
48027;BME280;50714;49.208;5.364;2023-04-25T06:38:44;99007.22;;;8.73;96.75
48027;BME280;50714;49.208;5.364;2023-04-25T06:48:44;99005.97;;;8.69;96.74
48027;BME280;50714;49.208;5.364;2023-04-25T06:58:44;99026.47;;;8.83;98.37
48027;BME280;50714;49.208;5.364;2023-04-25T07:08:45;99032.69;;;8.90;97.06
48027;BME280;50714;49.208;5.364;2023-04-25T07:18:45;99040.53;;;8.85;94.53
48027;BME280;50714;49.208;5.364;2023-04-25T07:28:46;99038.88;;;8.84;94.58
48027;BME280;50714;49.208;5.364;2023-04-25T07:38:49;99051.75;;;9.02;94.41
48027;BME280;50714;49.208;5.364;2023-04-25T07:48:50;99060.50;;;9.37;95.22
48027;BME280;50714;49.208;5.364;2023-04-25T07:58:50;99081.44;;;9.74;93.33
48027;BME280;50714;49.208;5.364;2023-04-25T08:08:51;99095.94;;;9.80;92.06
48027;BME280;50714;49.208;5.364;2023-04-25T08:18:51;99124.47;;;10.60;92.40
48027;BME280;50714;49.208;5.364;2023-04-25T08:28:52;99136.00;;;11.32;88.48
48027;BME280;50714;49.208;5.364;2023-04-25T08:38:52;99148.94;;;11.16;84.52
48027;BME280;50714;49.208;5.364;2023-04-25T08:48:53;99158.19;;;10.89;84.57
48027;BME280;50714;49.208;5.364;2023-04-25T08:58:56;99172.28;;;10.98;84.58
48027;BME280;50714;49.208;5.364;2023-04-25T09:09:07;99181.41;;;11.10;81.63
48027;BME280;50714;49.208;5.364;2023-04-25T09:19:21;99199.41;;;11.16;80.70
48027;BME280;50714;49.208;5.364;2023-04-25T09:29:29;99213.28;;;11.33;81.65
48027;BME280;50714;49.208;5.364;2023-04-25T09:39:30;99208.06;;;11.76;81.57
48027;BME280;50714;49.208;5.364;2023-04-25T09:49:32;99210.63;;;13.25;82.72
48027;BME280;50714;49.208;5.364;2023-04-25T09:59:35;99222.84;;;14.82;74.31
48027;BME280;50714;49.208;5.364;2023-04-25T10:09:39;99234.16;;;14.44;74.73
48027;BME280;50714;49.208;5.364;2023-04-25T10:19:39;99232.72;;;18.01;71.86
48027;BME280;50714;49.208;5.364;2023-04-25T10:29:40;99231.53;;;16.33;65.21
48027;BME280;50714;49.208;5.364;2023-04-25T10:39:43;99234.25;;;17.00;65.06
48027;BME280;50714;49.208;5.364;2023-04-25T10:49:43;99244.34;;;15.87;64.49
48027;BME280;50714;49.208;5.364;2023-04-25T10:59:44;99248.88;;;15.82;65.14
48027;BME280;50714;49.208;5.364;2023-04-25T11:09:45;99250.81;;;16.15;63.04
48027;BME280;50714;49.208;5.364;2023-04-25T11:19:48;99253.19;;;14.91;63.60
48027;BME280;50714;49.208;5.364;2023-04-25T11:29:48;99262.59;;;14.42;65.07
48027;BME280;50714;49.208;5.364;2023-04-25T11:39:49;99275.03;;;15.71;63.44
48027;BME280;50714;49.208;5.364;2023-04-25T11:49:53;99282.78;;;15.51;62.61
48027;BME280;50714;49.208;5.364;2023-04-25T11:59:53;99291.34;;;14.96;63.40
48027;BME280;50714;49.208;5.364;2023-04-25T12:09:53;99293.25;;;15.07;64.42
48027;BME280;50714;49.208;5.364;2023-04-25T12:19:54;99296.28;;;15.86;64.17
48027;BME280;50714;49.208;5.364;2023-04-25T12:29:55;99305.72;;;15.95;62.14
48027;BME280;50714;49.208;5.364;2023-04-25T12:39:56;99311.31;;;15.01;61.93
48027;BME280;50714;49.208;5.364;2023-04-25T12:49:56;99321.66;;;13.86;61.38
48027;BME280;50714;49.208;5.364;2023-04-25T12:59:57;99329.19;;;13.84;63.42
48027;BME280;50714;49.208;5.364;2023-04-25T13:09:57;99338.34;;;14.02;61.97
48027;BME280;50714;49.208;5.364;2023-04-25T13:19:59;99346.47;;;14.02;61.06
48027;BME280;50714;49.208;5.364;2023-04-25T13:30:00;99353.91;;;13.58;61.70
48027;BME280;50714;49.208;5.364;2023-04-25T13:40:03;99355.41;;;13.36;62.35
48027;BME280;50714;49.208;5.364;2023-04-25T13:50:05;99367.53;;;12.83;61.18
48027;BME280;50714;49.208;5.364;2023-04-25T14:00:07;99376.91;;;12.87;61.10
48027;BME280;50714;49.208;5.364;2023-04-25T14:10:09;99378.19;;;13.03;61.57
48027;BME280;50714;49.208;5.364;2023-04-25T14:20:09;99389.94;;;12.41;61.80
48027;BME280;50714;49.208;5.364;2023-04-25T14:30:11;99396.44;;;11.88;62.87
48027;BME280;50714;49.208;5.364;2023-04-25T14:40:13;99404.38;;;11.70;62.77
48027;BME280;50714;49.208;5.364;2023-04-25T14:50:15;99402.69;;;11.89;64.31
48027;BME280;50714;49.208;5.364;2023-04-25T15:00:15;99411.50;;;12.22;63.58
48027;BME280;50714;49.208;5.364;2023-04-25T15:10:17;99403.94;;;12.31;62.65
48027;BME280;50714;49.208;5.364;2023-04-25T15:20:18;99401.13;;;12.51;61.43
48027;BME280;50714;49.208;5.364;2023-04-25T15:30:19;99399.75;;;12.35;59.71
48027;BME280;50714;49.208;5.364;2023-04-25T15:40:20;99407.16;;;12.08;59.06
48027;BME280;50714;49.208;5.364;2023-04-25T15:50:21;99413.66;;;12.01;60.68
48027;BME280;50714;49.208;5.364;2023-04-25T16:00:22;99417.97;;;12.15;60.50
48027;BME280;50714;49.208;5.364;2023-04-25T16:10:22;99424.22;;;12.15;59.94
48027;BME280;50714;49.208;5.364;2023-04-25T16:20:23;99428.59;;;12.10;59.47
48027;BME280;50714;49.208;5.364;2023-04-25T16:30:23;99440.53;;;11.89;59.43
48027;BME280;50714;49.208;5.364;2023-04-25T16:40:24;99442.66;;;11.74;59.44
48027;BME280;50714;49.208;5.364;2023-04-25T16:50:24;99450.16;;;11.58;59.89
48027;BME280;50714;49.208;5.364;2023-04-25T17:00:26;99441.66;;;11.55;60.54
48027;BME280;50714;49.208;5.364;2023-04-25T17:10:26;99449.13;;;11.46;61.31
48027;BME280;50714;49.208;5.364;2023-04-25T17:20:27;99468.69;;;11.28;61.24
48027;BME280;50714;49.208;5.364;2023-04-25T17:30:29;99468.69;;;11.15;62.29
48027;BME280;50714;49.208;5.364;2023-04-25T17:40:31;99475.97;;;11.02;63.29
48027;BME280;50714;49.208;5.364;2023-04-25T17:50:31;99469.91;;;10.93;63.44
48027;BME280;50714;49.208;5.364;2023-04-25T18:00:32;99477.59;;;10.76;63.90
48027;BME280;50714;49.208;5.364;2023-04-25T18:10:33;99475.25;;;10.53;63.60
48027;BME280;50714;49.208;5.364;2023-04-25T18:20:33;99481.44;;;10.34;62.76
48027;BME280;50714;49.208;5.364;2023-04-25T18:30:34;99495.28;;;10.24;63.54
48027;BME280;50714;49.208;5.364;2023-04-25T18:40:34;99496.97;;;9.98;64.37
48027;BME280;50714;49.208;5.364;2023-04-25T18:50:36;99511.53;;;9.69;64.69
48027;BME280;50714;49.208;5.364;2023-04-25T19:00:37;99529.13;;;9.37;65.90
48027;BME280;50714;49.208;5.364;2023-04-25T19:10:37;99536.22;;;9.16;66.93
48027;BME280;50714;49.208;5.364;2023-04-25T19:20:38;99544.53;;;9.00;67.03
48027;BME280;50714;49.208;5.364;2023-04-25T19:30:38;99556.19;;;8.86;67.45
48027;BME280;50714;49.208;5.364;2023-04-25T19:40:39;99559.09;;;8.48;67.78
48027;BME280;50714;49.208;5.364;2023-04-25T19:50:39;99568.06;;;8.26;68.04
48027;BME280;50714;49.208;5.364;2023-04-25T20:00:40;99561.94;;;7.88;68.38
48027;BME280;50714;49.208;5.364;2023-04-25T20:10:41;99572.31;;;7.76;69.75
48027;BME280;50714;49.208;5.364;2023-04-25T20:20:41;99576.44;;;7.49;70.21
48027;BME280;50714;49.208;5.364;2023-04-25T20:30:42;99597.03;;;7.11;71.39
48027;BME280;50714;49.208;5.364;2023-04-25T20:40:42;99594.25;;;6.74;71.38
48027;BME280;50714;49.208;5.364;2023-04-25T20:50:43;99602.22;;;6.59;72.13
48027;BME280;50714;49.208;5.364;2023-04-25T21:00:44;99582.34;;;6.45;72.96
48027;BME280;50714;49.208;5.364;2023-04-25T21:10:46;99593.56;;;6.10;73.35
48027;BME280;50714;49.208;5.364;2023-04-25T21:20:46;99594.03;;;6.13;73.92
48027;BME280;50714;49.208;5.364;2023-04-25T21:30:46;99600.09;;;6.07;73.70
48027;BME280;50714;49.208;5.364;2023-04-25T21:40:47;99595.59;;;5.75;73.59
48027;BME280;50714;49.208;5.364;2023-04-25T21:50:48;99597.47;;;5.51;74.20
48027;BME280;50714;49.208;5.364;2023-04-25T22:00:49;99601.00;;;5.43;74.42
48027;BME280;50714;49.208;5.364;2023-04-25T22:10:51;99610.84;;;5.26;75.73
48027;BME280;50714;49.208;5.364;2023-04-25T22:20:52;99620.53;;;5.03;74.91
48027;BME280;50714;49.208;5.364;2023-04-25T22:30:52;99612.31;;;4.88;75.02
48027;BME280;50714;49.208;5.364;2023-04-25T22:40:53;99622.09;;;4.63;75.97
48027;BME280;50714;49.208;5.364;2023-04-25T22:51:03;99641.97;;;4.61;75.70
48027;BME280;50714;49.208;5.364;2023-04-25T23:01:04;99632.03;;;4.37;76.81
48027;BME280;50714;49.208;5.364;2023-04-25T23:11:08;99641.56;;;4.39;76.15
48027;BME280;50714;49.208;5.364;2023-04-25T23:21:08;99637.16;;;4.30;75.99
48027;BME280;50714;49.208;5.364;2023-04-25T23:31:09;99648.72;;;4.05;76.65
48027;BME280;50714;49.208;5.364;2023-04-25T23:41:11;99660.75;;;4.09;77.00
48027;BME280;50714;49.208;5.364;2023-04-25T23:51:11;99659.44;;;3.87;76.53
